sensor_id;sensor_type;location;lat;lon;timestamp;temperature;humidity
2489;DHT22;1255;48.716;9.124;2023-05-29T00:01:33;12.90;99.90
2489;DHT22;1255;48.716;9.124;2023-05-29T00:04:02;12.80;99.90
2489;DHT22;1255;48.716;9.124;2023-05-29T00:06:28;12.80;99.90
2489;DHT22;1255;48.716;9.124;2023-05-29T00:08:56;12.80;99.90
2489;DHT22;1255;48.716;9.124;2023-05-29T00:11:23;12.70;99.90
2489;DHT22;1255;48.716;9.124;2023-05-29T00:13:49;12.70;99.90
2489;DHT22;1255;48.716;9.124;2023-05-29T00:16:20;12.70;99.90
2489;DHT22;1255;48.716;9.124;2023-05-29T00:18:48;12.60;99.90
2489;DHT22;1255;48.716;9.124;2023-05-29T00:21:18;12.60;99.90
2489;DHT22;1255;48.716;9.124;2023-05-29T00:23:44;12.60;99.90
2489;DHT22;1255;48.716;9.124;2023-05-29T00:26:11;12.60;99.90
2489;DHT22;1255;48.716;9.124;2023-05-29T00:28:39;12.50;99.90
2489;DHT22;1255;48.716;9.124;2023-05-29T00:31:06;12.50;99.90
2489;DHT22;1255;48.716;9.124;2023-05-29T00:33:35;12.40;99.90
2489;DHT22;1255;48.716;9.124;2023-05-29T00:36:02;12.40;99.90
2489;DHT22;1255;48.716;9.124;2023-05-29T00:38:30;12.40;99.90
2489;DHT22;1255;48.716;9.124;2023-05-29T00:40:57;12.40;99.90
2489;DHT22;1255;48.716;9.124;2023-05-29T00:43:24;12.40;99.90
2489;DHT22;1255;48.716;9.124;2023-05-29T00:45:51;12.30;99.90
2489;DHT22;1255;48.716;9.124;2023-05-29T00:48:18;12.30;99.90
2489;DHT22;1255;48.716;9.124;2023-05-29T00:50:46;12.30;99.90
2489;DHT22;1255;48.716;9.124;2023-05-29T00:53:15;12.30;99.90
2489;DHT22;1255;48.716;9.124;2023-05-29T00:55:42;12.20;99.90
2489;DHT22;1255;48.716;9.124;2023-05-29T00:58:09;12.20;99.90
2489;DHT22;1255;48.716;9.124;2023-05-29T01:00:36;12.10;99.90
2489;DHT22;1255;48.716;9.124;2023-05-29T01:03:05;12.10;99.90
2489;DHT22;1255;48.716;9.124;2023-05-29T01:05:34;12.00;99.90
2489;DHT22;1255;48.716;9.124;2023-05-29T01:08:02;12.00;99.90
2489;DHT22;1255;48.716;9.124;2023-05-29T01:10:30;12.00;99.90
2489;DHT22;1255;48.716;9.124;2023-05-29T01:13:11;12.00;99.90
2489;DHT22;1255;48.716;9.124;2023-05-29T01:15:45;11.90;99.90
2489;DHT22;1255;48.716;9.124;2023-05-29T01:18:24;11.90;99.90
2489;DHT22;1255;48.716;9.124;2023-05-29T01:20:56;11.90;99.90
2489;DHT22;1255;48.716;9.124;2023-05-29T01:26:50;11.70;99.90
2489;DHT22;1255;48.716;9.124;2023-05-29T01:29:19;11.70;99.90
2489;DHT22;1255;48.716;9.124;2023-05-29T01:31:48;11.70;99.90
2489;DHT22;1255;48.716;9.124;2023-05-29T01:34:16;11.70;99.90
2489;DHT22;1255;48.716;9.124;2023-05-29T01:36:43;11.70;99.90
2489;DHT22;1255;48.716;9.124;2023-05-29T01:39:12;11.60;99.90
2489;DHT22;1255;48.716;9.124;2023-05-29T01:41:40;11.60;99.90
2489;DHT22;1255;48.716;9.124;2023-05-29T01:44:10;11.60;99.90
2489;DHT22;1255;48.716;9.124;2023-05-29T01:46:38;11.60;99.90
2489;DHT22;1255;48.716;9.124;2023-05-29T01:49:05;11.50;99.90
2489;DHT22;1255;48.716;9.124;2023-05-29T01:51:33;11.50;99.90
2489;DHT22;1255;48.716;9.124;2023-05-29T01:54:01;11.50;99.90
2489;DHT22;1255;48.716;9.124;2023-05-29T01:56:28;11.40;99.90
2489;DHT22;1255;48.716;9.124;2023-05-29T01:58:56;11.40;99.90
2489;DHT22;1255;48.716;9.124;2023-05-29T02:01:25;11.40;99.90
2489;DHT22;1255;48.716;9.124;2023-05-29T02:03:52;11.40;99.90
2489;DHT22;1255;48.716;9.124;2023-05-29T02:06:19;11.40;99.90
2489;DHT22;1255;48.716;9.124;2023-05-29T02:08:46;11.30;99.90
2489;DHT22;1255;48.716;9.124;2023-05-29T02:11:14;11.30;99.90
2489;DHT22;1255;48.716;9.124;2023-05-29T02:13:41;11.30;99.90
2489;DHT22;1255;48.716;9.124;2023-05-29T02:16:08;11.30;99.90
2489;DHT22;1255;48.716;9.124;2023-05-29T02:18:36;11.30;99.90
2489;DHT22;1255;48.716;9.124;2023-05-29T02:21:03;11.30;99.90
2489;DHT22;1255;48.716;9.124;2023-05-29T02:23:30;11.20;99.90
2489;DHT22;1255;48.716;9.124;2023-05-29T02:25:57;11.20;99.90
2489;DHT22;1255;48.716;9.124;2023-05-29T02:28:23;11.10;99.90
2489;DHT22;1255;48.716;9.124;2023-05-29T02:30:50;11.10;99.90
2489;DHT22;1255;48.716;9.124;2023-05-29T02:33:17;11.10;99.90
2489;DHT22;1255;48.716;9.124;2023-05-29T02:35:46;11.10;99.90
2489;DHT22;1255;48.716;9.124;2023-05-29T02:38:12;11.10;99.90
2489;DHT22;1255;48.716;9.124;2023-05-29T02:40:39;11.10;99.90
2489;DHT22;1255;48.716;9.124;2023-05-29T02:43:08;11.00;99.90
2489;DHT22;1255;48.716;9.124;2023-05-29T02:45:35;11.00;99.90
2489;DHT22;1255;48.716;9.124;2023-05-29T02:48:02;11.00;99.90
2489;DHT22;1255;48.716;9.124;2023-05-29T02:50:29;11.00;99.90
2489;DHT22;1255;48.716;9.124;2023-05-29T02:52:58;11.00;99.90
2489;DHT22;1255;48.716;9.124;2023-05-29T02:55:25;10.90;99.90
2489;DHT22;1255;48.716;9.124;2023-05-29T02:57:52;10.90;99.90
2489;DHT22;1255;48.716;9.124;2023-05-29T03:00:20;10.90;99.90
2489;DHT22;1255;48.716;9.124;2023-05-29T03:02:47;10.80;99.90
2489;DHT22;1255;48.716;9.124;2023-05-29T03:05:14;10.80;99.90
2489;DHT22;1255;48.716;9.124;2023-05-29T03:07:42;10.80;99.90
2489;DHT22;1255;48.716;9.124;2023-05-29T03:10:10;10.80;99.90
2489;DHT22;1255;48.716;9.124;2023-05-29T03:12:38;10.80;99.90
2489;DHT22;1255;48.716;9.124;2023-05-29T03:15:05;10.80;99.90
2489;DHT22;1255;48.716;9.124;2023-05-29T03:17:33;10.80;99.90
2489;DHT22;1255;48.716;9.124;2023-05-29T03:20:02;10.80;99.90
2489;DHT22;1255;48.716;9.124;2023-05-29T03:22:31;10.70;99.90
2489;DHT22;1255;48.716;9.124;2023-05-29T03:24:58;10.70;99.90
2489;DHT22;1255;48.716;9.124;2023-05-29T03:27:26;10.60;99.90
2489;DHT22;1255;48.716;9.124;2023-05-29T03:29:54;10.60;99.90
2489;DHT22;1255;48.716;9.124;2023-05-29T03:32:21;10.50;99.90
2489;DHT22;1255;48.716;9.124;2023-05-29T03:34:48;10.60;99.90
2489;DHT22;1255;48.716;9.124;2023-05-29T03:37:15;10.60;99.90
2489;DHT22;1255;48.716;9.124;2023-05-29T03:39:42;10.60;99.90
2489;DHT22;1255;48.716;9.124;2023-05-29T03:42:09;10.50;99.90
2489;DHT22;1255;48.716;9.124;2023-05-29T03:44:37;10.60;99.90
2489;DHT22;1255;48.716;9.124;2023-05-29T03:47:04;10.50;99.90
2489;DHT22;1255;48.716;9.124;2023-05-29T03:49:31;10.60;99.90
2489;DHT22;1255;48.716;9.124;2023-05-29T03:51:58;10.60;99.90
2489;DHT22;1255;48.716;9.124;2023-05-29T03:54:25;10.60;99.90
2489;DHT22;1255;48.716;9.124;2023-05-29T03:56:51;10.50;99.90
2489;DHT22;1255;48.716;9.124;2023-05-29T03:59:18;10.50;99.90
2489;DHT22;1255;48.716;9.124;2023-05-29T04:01:47;10.50;99.90
2489;DHT22;1255;48.716;9.124;2023-05-29T04:04:14;10.50;99.90
2489;DHT22;1255;48.716;9.124;2023-05-29T04:06:40;10.50;99.90
2489;DHT22;1255;48.716;9.124;2023-05-29T04:09:07;10.60;99.90
2489;DHT22;1255;48.716;9.124;2023-05-29T04:11:34;10.60;99.90
2489;DHT22;1255;48.716;9.124;2023-05-29T04:14:01;10.60;99.90
2489;DHT22;1255;48.716;9.124;2023-05-29T04:16:28;10.70;99.90
2489;DHT22;1255;48.716;9.124;2023-05-29T04:18:56;10.70;99.90
2489;DHT22;1255;48.716;9.124;2023-05-29T04:21:23;10.70;99.90
2489;DHT22;1255;48.716;9.124;2023-05-29T04:23:51;10.70;99.90
2489;DHT22;1255;48.716;9.124;2023-05-29T04:26:21;10.70;99.90
2489;DHT22;1255;48.716;9.124;2023-05-29T04:29:03;10.80;99.90
2489;DHT22;1255;48.716;9.124;2023-05-29T04:31:30;10.80;99.90
2489;DHT22;1255;48.716;9.124;2023-05-29T04:33:59;10.80;99.90
2489;DHT22;1255;48.716;9.124;2023-05-29T04:36:27;10.90;99.90
2489;DHT22;1255;48.716;9.124;2023-05-29T04:38:58;10.90;99.90
2489;DHT22;1255;48.716;9.124;2023-05-29T04:41:25;10.90;99.90
2489;DHT22;1255;48.716;9.124;2023-05-29T04:43:54;11.00;99.90
2489;DHT22;1255;48.716;9.124;2023-05-29T04:46:22;11.00;99.90
2489;DHT22;1255;48.716;9.124;2023-05-29T04:48:49;11.10;99.90
2489;DHT22;1255;48.716;9.124;2023-05-29T04:51:20;11.10;99.90
2489;DHT22;1255;48.716;9.124;2023-05-29T04:53:47;11.20;99.90
2489;DHT22;1255;48.716;9.124;2023-05-29T04:56:14;11.30;99.90
2489;DHT22;1255;48.716;9.124;2023-05-29T04:58:42;11.40;99.90
2489;DHT22;1255;48.716;9.124;2023-05-29T05:01:08;11.50;99.90
2489;DHT22;1255;48.716;9.124;2023-05-29T05:03:39;11.50;99.90
2489;DHT22;1255;48.716;9.124;2023-05-29T05:06:06;11.60;99.90
2489;DHT22;1255;48.716;9.124;2023-05-29T05:08:35;11.70;99.90
2489;DHT22;1255;48.716;9.124;2023-05-29T05:11:02;11.80;99.90
2489;DHT22;1255;48.716;9.124;2023-05-29T05:13:29;11.90;99.90
2489;DHT22;1255;48.716;9.124;2023-05-29T05:15:56;12.00;99.90
2489;DHT22;1255;48.716;9.124;2023-05-29T05:18:23;12.10;99.90
2489;DHT22;1255;48.716;9.124;2023-05-29T05:20:50;12.20;99.90
2489;DHT22;1255;48.716;9.124;2023-05-29T05:23:17;12.30;99.90
2489;DHT22;1255;48.716;9.124;2023-05-29T05:25:45;12.40;99.90
2489;DHT22;1255;48.716;9.124;2023-05-29T05:28:12;12.50;99.90
2489;DHT22;1255;48.716;9.124;2023-05-29T05:30:39;12.60;99.90
2489;DHT22;1255;48.716;9.124;2023-05-29T05:33:06;12.80;99.90
2489;DHT22;1255;48.716;9.124;2023-05-29T05:35:33;12.90;99.90
2489;DHT22;1255;48.716;9.124;2023-05-29T05:38:00;13.10;99.90
2489;DHT22;1255;48.716;9.124;2023-05-29T05:40:27;13.20;99.90
2489;DHT22;1255;48.716;9.124;2023-05-29T05:42:55;13.30;99.90
2489;DHT22;1255;48.716;9.124;2023-05-29T05:45:22;13.40;99.90
2489;DHT22;1255;48.716;9.124;2023-05-29T05:47:49;13.60;99.90
2489;DHT22;1255;48.716;9.124;2023-05-29T05:50:16;13.70;99.90
2489;DHT22;1255;48.716;9.124;2023-05-29T05:52:43;13.80;99.90
2489;DHT22;1255;48.716;9.124;2023-05-29T05:55:10;13.90;99.90
2489;DHT22;1255;48.716;9.124;2023-05-29T05:57:37;14.10;99.90
2489;DHT22;1255;48.716;9.124;2023-05-29T06:00:06;14.20;99.90
2489;DHT22;1255;48.716;9.124;2023-05-29T06:02:37;14.40;99.90
2489;DHT22;1255;48.716;9.124;2023-05-29T06:05:07;14.40;99.90
2489;DHT22;1255;48.716;9.124;2023-05-29T06:07:34;14.50;99.90
2489;DHT22;1255;48.716;9.124;2023-05-29T06:10:02;14.70;99.90
2489;DHT22;1255;48.716;9.124;2023-05-29T06:12:28;14.80;99.90
2489;DHT22;1255;48.716;9.124;2023-05-29T06:14:55;14.90;99.90
2489;DHT22;1255;48.716;9.124;2023-05-29T06:17:24;15.00;99.90
2489;DHT22;1255;48.716;9.124;2023-05-29T06:19:52;15.10;99.90
2489;DHT22;1255;48.716;9.124;2023-05-29T06:22:19;15.20;99.90
2489;DHT22;1255;48.716;9.124;2023-05-29T06:24:47;15.30;99.90
2489;DHT22;1255;48.716;9.124;2023-05-29T06:27:14;15.40;99.90
2489;DHT22;1255;48.716;9.124;2023-05-29T06:29:40;15.40;99.90
2489;DHT22;1255;48.716;9.124;2023-05-29T06:32:07;15.50;99.90
2489;DHT22;1255;48.716;9.124;2023-05-29T06:34:35;15.60;99.90
2489;DHT22;1255;48.716;9.124;2023-05-29T06:37:02;15.60;99.90
2489;DHT22;1255;48.716;9.124;2023-05-29T06:39:29;15.70;99.90
2489;DHT22;1255;48.716;9.124;2023-05-29T06:41:56;15.80;99.90
2489;DHT22;1255;48.716;9.124;2023-05-29T06:44:23;15.90;99.90
2489;DHT22;1255;48.716;9.124;2023-05-29T06:46:50;16.00;99.90
2489;DHT22;1255;48.716;9.124;2023-05-29T06:49:17;16.00;99.90
2489;DHT22;1255;48.716;9.124;2023-05-29T06:51:45;16.10;99.90
2489;DHT22;1255;48.716;9.124;2023-05-29T06:54:12;16.20;99.90
2489;DHT22;1255;48.716;9.124;2023-05-29T06:56:39;16.20;99.90
2489;DHT22;1255;48.716;9.124;2023-05-29T06:59:06;16.30;99.90
2489;DHT22;1255;48.716;9.124;2023-05-29T07:01:33;16.40;99.90
2489;DHT22;1255;48.716;9.124;2023-05-29T07:04:00;16.50;99.90
2489;DHT22;1255;48.716;9.124;2023-05-29T07:06:26;16.60;99.90
2489;DHT22;1255;48.716;9.124;2023-05-29T07:08:55;16.60;99.90
2489;DHT22;1255;48.716;9.124;2023-05-29T07:11:21;16.70;99.90
2489;DHT22;1255;48.716;9.124;2023-05-29T07:13:48;16.90;99.90
2489;DHT22;1255;48.716;9.124;2023-05-29T07:16:15;17.00;99.90
2489;DHT22;1255;48.716;9.124;2023-05-29T07:18:44;17.10;99.90
2489;DHT22;1255;48.716;9.124;2023-05-29T07:21:10;17.20;99.90
2489;DHT22;1255;48.716;9.124;2023-05-29T07:23:37;17.30;99.90
2489;DHT22;1255;48.716;9.124;2023-05-29T07:26:05;17.40;99.90
2489;DHT22;1255;48.716;9.124;2023-05-29T07:28:32;17.40;99.90
2489;DHT22;1255;48.716;9.124;2023-05-29T07:30:59;17.60;99.90
2489;DHT22;1255;48.716;9.124;2023-05-29T07:33:26;17.60;99.90
2489;DHT22;1255;48.716;9.124;2023-05-29T07:35:53;17.70;99.90
2489;DHT22;1255;48.716;9.124;2023-05-29T07:38:20;17.80;99.90
2489;DHT22;1255;48.716;9.124;2023-05-29T07:40:47;17.90;99.90
2489;DHT22;1255;48.716;9.124;2023-05-29T07:43:15;18.00;99.90
2489;DHT22;1255;48.716;9.124;2023-05-29T07:45:42;18.20;99.90
2489;DHT22;1255;48.716;9.124;2023-05-29T07:48:09;18.30;99.90
2489;DHT22;1255;48.716;9.124;2023-05-29T07:50:36;18.30;99.90
2489;DHT22;1255;48.716;9.124;2023-05-29T07:53:03;18.40;99.90
2489;DHT22;1255;48.716;9.124;2023-05-29T07:55:30;18.50;99.90
2489;DHT22;1255;48.716;9.124;2023-05-29T07:57:56;18.60;99.90
2489;DHT22;1255;48.716;9.124;2023-05-29T08:00:25;18.70;99.90
2489;DHT22;1255;48.716;9.124;2023-05-29T08:02:53;18.80;99.90
2489;DHT22;1255;48.716;9.124;2023-05-29T08:05:20;18.90;99.90
2489;DHT22;1255;48.716;9.124;2023-05-29T08:07:47;19.00;99.90
2489;DHT22;1255;48.716;9.124;2023-05-29T08:10:14;19.00;99.90
2489;DHT22;1255;48.716;9.124;2023-05-29T08:12:41;19.10;99.90
2489;DHT22;1255;48.716;9.124;2023-05-29T08:15:08;19.10;99.90
2489;DHT22;1255;48.716;9.124;2023-05-29T08:17:37;19.20;99.90
2489;DHT22;1255;48.716;9.124;2023-05-29T08:20:04;19.40;99.90
2489;DHT22;1255;48.716;9.124;2023-05-29T08:22:32;19.50;99.90
2489;DHT22;1255;48.716;9.124;2023-05-29T08:25:00;19.60;99.90
2489;DHT22;1255;48.716;9.124;2023-05-29T08:27:26;19.70;99.90
2489;DHT22;1255;48.716;9.124;2023-05-29T08:29:53;19.70;99.90
2489;DHT22;1255;48.716;9.124;2023-05-29T08:32:21;19.70;99.90
2489;DHT22;1255;48.716;9.124;2023-05-29T08:34:49;19.90;99.90
2489;DHT22;1255;48.716;9.124;2023-05-29T08:37:16;20.00;99.90
2489;DHT22;1255;48.716;9.124;2023-05-29T08:39:43;20.00;99.90
2489;DHT22;1255;48.716;9.124;2023-05-29T08:42:13;20.10;99.90
2489;DHT22;1255;48.716;9.124;2023-05-29T08:44:40;20.30;99.90
2489;DHT22;1255;48.716;9.124;2023-05-29T08:47:07;20.50;99.90
2489;DHT22;1255;48.716;9.124;2023-05-29T08:49:40;20.60;99.90
2489;DHT22;1255;48.716;9.124;2023-05-29T08:52:15;20.80;99.90
2489;DHT22;1255;48.716;9.124;2023-05-29T08:54:43;20.90;99.90
2489;DHT22;1255;48.716;9.124;2023-05-29T08:57:11;21.00;99.90
2489;DHT22;1255;48.716;9.124;2023-05-29T08:59:42;21.00;99.90
2489;DHT22;1255;48.716;9.124;2023-05-29T09:02:09;21.20;99.90
2489;DHT22;1255;48.716;9.124;2023-05-29T09:04:37;21.30;99.90
2489;DHT22;1255;48.716;9.124;2023-05-29T09:07:04;21.30;99.90
2489;DHT22;1255;48.716;9.124;2023-05-29T09:09:36;21.50;99.90
2489;DHT22;1255;48.716;9.124;2023-05-29T09:12:03;21.50;99.90
2489;DHT22;1255;48.716;9.124;2023-05-29T09:14:35;21.60;99.90
2489;DHT22;1255;48.716;9.124;2023-05-29T09:17:03;21.70;99.90
2489;DHT22;1255;48.716;9.124;2023-05-29T09:19:30;21.70;99.90
2489;DHT22;1255;48.716;9.124;2023-05-29T09:22:01;21.80;99.90
2489;DHT22;1255;48.716;9.124;2023-05-29T09:24:29;22.00;99.90
2489;DHT22;1255;48.716;9.124;2023-05-29T09:26:59;22.10;99.90
2489;DHT22;1255;48.716;9.124;2023-05-29T09:29:26;22.20;99.90
2489;DHT22;1255;48.716;9.124;2023-05-29T09:31:53;22.30;99.90
2489;DHT22;1255;48.716;9.124;2023-05-29T09:34:23;22.50;99.90
2489;DHT22;1255;48.716;9.124;2023-05-29T09:36:50;22.60;99.90
2489;DHT22;1255;48.716;9.124;2023-05-29T09:39:17;22.70;99.90
2489;DHT22;1255;48.716;9.124;2023-05-29T09:41:44;22.80;99.90
2489;DHT22;1255;48.716;9.124;2023-05-29T09:44:13;22.90;99.90
2489;DHT22;1255;48.716;9.124;2023-05-29T09:46:41;23.00;99.80
2489;DHT22;1255;48.716;9.124;2023-05-29T09:49:10;23.10;99.90
2489;DHT22;1255;48.716;9.124;2023-05-29T09:51:37;23.10;99.20
2489;DHT22;1255;48.716;9.124;2023-05-29T09:54:15;23.20;99.90
2489;DHT22;1255;48.716;9.124;2023-05-29T09:56:42;23.40;99.90
2489;DHT22;1255;48.716;9.124;2023-05-29T09:59:11;23.60;99.90
2489;DHT22;1255;48.716;9.124;2023-05-29T10:01:41;23.60;99.20
2489;DHT22;1255;48.716;9.124;2023-05-29T10:04:09;23.60;99.40
2489;DHT22;1255;48.716;9.124;2023-05-29T10:06:37;23.60;99.80
2489;DHT22;1255;48.716;9.124;2023-05-29T10:09:06;23.80;99.90
2489;DHT22;1255;48.716;9.124;2023-05-29T10:11:35;23.90;99.90
2489;DHT22;1255;48.716;9.124;2023-05-29T10:14:04;24.00;99.20
2489;DHT22;1255;48.716;9.124;2023-05-29T10:16:34;24.10;99.90
2489;DHT22;1255;48.716;9.124;2023-05-29T10:19:06;24.10;99.40
2489;DHT22;1255;48.716;9.124;2023-05-29T10:21:37;24.10;99.90
2489;DHT22;1255;48.716;9.124;2023-05-29T10:24:07;24.30;99.90
2489;DHT22;1255;48.716;9.124;2023-05-29T10:26:38;24.50;99.90
2489;DHT22;1255;48.716;9.124;2023-05-29T10:29:23;24.70;99.90
2489;DHT22;1255;48.716;9.124;2023-05-29T10:32:01;24.90;99.10
2489;DHT22;1255;48.716;9.124;2023-05-29T10:34:39;24.90;97.30
2489;DHT22;1255;48.716;9.124;2023-05-29T10:37:18;24.80;98.10
2489;DHT22;1255;48.716;9.124;2023-05-29T10:39:48;24.90;98.80
2489;DHT22;1255;48.716;9.124;2023-05-29T10:42:42;25.10;99.50
2489;DHT22;1255;48.716;9.124;2023-05-29T10:45:09;25.20;99.10
2489;DHT22;1255;48.716;9.124;2023-05-29T10:47:37;25.40;97.10
2489;DHT22;1255;48.716;9.124;2023-05-29T10:50:06;25.40;96.90
2489;DHT22;1255;48.716;9.124;2023-05-29T10:52:33;25.40;98.20
2489;DHT22;1255;48.716;9.124;2023-05-29T10:55:01;25.40;96.10
2489;DHT22;1255;48.716;9.124;2023-05-29T10:57:30;25.40;97.00
2489;DHT22;1255;48.716;9.124;2023-05-29T11:00:06;25.60;96.60
2489;DHT22;1255;48.716;9.124;2023-05-29T11:02:39;25.70;96.10
2489;DHT22;1255;48.716;9.124;2023-05-29T11:05:23;25.70;93.30
2489;DHT22;1255;48.716;9.124;2023-05-29T11:07:52;25.30;94.70
2489;DHT22;1255;48.716;9.124;2023-05-29T11:10:44;25.20;95.50
2489;DHT22;1255;48.716;9.124;2023-05-29T11:13:23;25.40;96.40
2489;DHT22;1255;48.716;9.124;2023-05-29T11:16:11;25.60;95.60
2489;DHT22;1255;48.716;9.124;2023-05-29T11:18:40;25.60;93.70
2489;DHT22;1255;48.716;9.124;2023-05-29T11:23:59;25.80;94.70
2489;DHT22;1255;48.716;9.124;2023-05-29T11:26:29;26.10;95.10
2489;DHT22;1255;48.716;9.124;2023-05-29T11:28:59;26.30;95.50
2489;DHT22;1255;48.716;9.124;2023-05-29T11:31:28;26.50;93.90
2489;DHT22;1255;48.716;9.124;2023-05-29T11:33:59;26.60;94.40
2489;DHT22;1255;48.716;9.124;2023-05-29T11:36:30;26.90;93.80
2489;DHT22;1255;48.716;9.124;2023-05-29T11:38:58;27.00;92.80
2489;DHT22;1255;48.716;9.124;2023-05-29T11:41:25;27.20;92.00
2489;DHT22;1255;48.716;9.124;2023-05-29T11:43:59;27.20;91.60
2489;DHT22;1255;48.716;9.124;2023-05-29T11:46:27;27.20;92.30
2489;DHT22;1255;48.716;9.124;2023-05-29T11:48:56;27.30;92.10
2489;DHT22;1255;48.716;9.124;2023-05-29T11:51:23;27.50;92.40
2489;DHT22;1255;48.716;9.124;2023-05-29T11:53:52;27.50;92.90
2489;DHT22;1255;48.716;9.124;2023-05-29T11:56:23;27.70;92.80
2489;DHT22;1255;48.716;9.124;2023-05-29T11:58:51;27.70;90.70
2489;DHT22;1255;48.716;9.124;2023-05-29T12:01:21;27.70;91.90
2489;DHT22;1255;48.716;9.124;2023-05-29T12:03:49;28.00;93.10
2489;DHT22;1255;48.716;9.124;2023-05-29T12:06:16;28.10;92.30
2489;DHT22;1255;48.716;9.124;2023-05-29T12:08:43;28.10;91.00
2489;DHT22;1255;48.716;9.124;2023-05-29T12:11:11;28.20;91.70
2489;DHT22;1255;48.716;9.124;2023-05-29T12:13:38;28.30;91.90
2489;DHT22;1255;48.716;9.124;2023-05-29T12:16:05;28.20;90.90
2489;DHT22;1255;48.716;9.124;2023-05-29T12:18:33;28.10;86.80
2489;DHT22;1255;48.716;9.124;2023-05-29T12:21:01;27.90;86.00
2489;DHT22;1255;48.716;9.124;2023-05-29T12:23:29;27.90;87.80
2489;DHT22;1255;48.716;9.124;2023-05-29T12:25:57;27.80;83.70
2489;DHT22;1255;48.716;9.124;2023-05-29T12:28:26;27.50;86.30
2489;DHT22;1255;48.716;9.124;2023-05-29T12:30:58;27.50;87.30
2489;DHT22;1255;48.716;9.124;2023-05-29T12:33:27;27.50;86.60
2489;DHT22;1255;48.716;9.124;2023-05-29T12:35:54;27.70;90.20
2489;DHT22;1255;48.716;9.124;2023-05-29T12:38:22;27.90;90.10
2489;DHT22;1255;48.716;9.124;2023-05-29T12:40:49;27.70;88.10
2489;DHT22;1255;48.716;9.124;2023-05-29T12:43:17;27.50;86.10
2489;DHT22;1255;48.716;9.124;2023-05-29T12:45:45;27.40;87.00
2489;DHT22;1255;48.716;9.124;2023-05-29T12:48:12;27.50;84.50
2489;DHT22;1255;48.716;9.124;2023-05-29T12:50:39;27.50;88.80
2489;DHT22;1255;48.716;9.124;2023-05-29T12:53:08;27.50;89.50
2489;DHT22;1255;48.716;9.124;2023-05-29T12:55:36;27.50;86.00
2489;DHT22;1255;48.716;9.124;2023-05-29T12:58:04;27.50;82.30
2489;DHT22;1255;48.716;9.124;2023-05-29T13:00:32;27.50;89.20
2489;DHT22;1255;48.716;9.124;2023-05-29T13:03:01;27.60;84.50
2489;DHT22;1255;48.716;9.124;2023-05-29T13:05:28;27.50;83.90
2489;DHT22;1255;48.716;9.124;2023-05-29T13:07:54;27.50;87.00
2489;DHT22;1255;48.716;9.124;2023-05-29T13:10:21;27.50;85.00
2489;DHT22;1255;48.716;9.124;2023-05-29T13:12:48;27.60;86.50
2489;DHT22;1255;48.716;9.124;2023-05-29T13:15:19;27.70;83.80
2489;DHT22;1255;48.716;9.124;2023-05-29T13:17:46;27.70;83.10
2489;DHT22;1255;48.716;9.124;2023-05-29T13:20:14;27.60;79.70
2489;DHT22;1255;48.716;9.124;2023-05-29T13:22:42;27.60;82.70
2489;DHT22;1255;48.716;9.124;2023-05-29T13:25:11;27.70;81.70
2489;DHT22;1255;48.716;9.124;2023-05-29T13:27:41;27.80;83.00
2489;DHT22;1255;48.716;9.124;2023-05-29T13:30:09;27.70;83.60
2489;DHT22;1255;48.716;9.124;2023-05-29T13:32:37;27.70;80.60
2489;DHT22;1255;48.716;9.124;2023-05-29T13:35:05;27.80;84.00
2489;DHT22;1255;48.716;9.124;2023-05-29T13:37:35;27.80;82.60
2489;DHT22;1255;48.716;9.124;2023-05-29T13:40:02;27.90;82.40
2489;DHT22;1255;48.716;9.124;2023-05-29T13:42:29;27.90;81.00
2489;DHT22;1255;48.716;9.124;2023-05-29T13:44:56;28.00;79.20
2489;DHT22;1255;48.716;9.124;2023-05-29T13:47:23;27.80;77.80
2489;DHT22;1255;48.716;9.124;2023-05-29T13:49:52;27.60;79.20
2489;DHT22;1255;48.716;9.124;2023-05-29T13:52:19;27.50;82.20
2489;DHT22;1255;48.716;9.124;2023-05-29T13:54:47;27.50;80.60
2489;DHT22;1255;48.716;9.124;2023-05-29T13:57:14;27.50;78.20
2489;DHT22;1255;48.716;9.124;2023-05-29T13:59:42;27.60;78.90
2489;DHT22;1255;48.716;9.124;2023-05-29T14:02:08;27.60;82.80
2489;DHT22;1255;48.716;9.124;2023-05-29T14:04:35;27.70;79.50
2489;DHT22;1255;48.716;9.124;2023-05-29T14:07:04;27.70;82.20
2489;DHT22;1255;48.716;9.124;2023-05-29T14:09:31;27.90;80.00
2489;DHT22;1255;48.716;9.124;2023-05-29T14:11:59;27.80;78.40
2489;DHT22;1255;48.716;9.124;2023-05-29T14:14:27;27.50;77.70
2489;DHT22;1255;48.716;9.124;2023-05-29T14:16:54;27.40;77.60
2489;DHT22;1255;48.716;9.124;2023-05-29T14:19:21;27.40;75.90
2489;DHT22;1255;48.716;9.124;2023-05-29T14:21:48;27.30;79.50
2489;DHT22;1255;48.716;9.124;2023-05-29T14:24:15;27.30;78.10
2489;DHT22;1255;48.716;9.124;2023-05-29T14:26:43;27.40;80.80
2489;DHT22;1255;48.716;9.124;2023-05-29T14:29:14;27.30;78.20
2489;DHT22;1255;48.716;9.124;2023-05-29T14:31:44;27.10;78.50
2489;DHT22;1255;48.716;9.124;2023-05-29T14:34:50;27.20;79.20
2489;DHT22;1255;48.716;9.124;2023-05-29T14:37:18;27.20;81.00
2489;DHT22;1255;48.716;9.124;2023-05-29T14:39:48;27.20;79.10
2489;DHT22;1255;48.716;9.124;2023-05-29T14:42:14;27.10;77.60
2489;DHT22;1255;48.716;9.124;2023-05-29T14:44:44;27.00;77.90
2489;DHT22;1255;48.716;9.124;2023-05-29T14:47:11;26.90;78.60
2489;DHT22;1255;48.716;9.124;2023-05-29T14:49:38;26.80;79.50
2489;DHT22;1255;48.716;9.124;2023-05-29T14:52:05;26.90;80.80
2489;DHT22;1255;48.716;9.124;2023-05-29T14:54:33;26.80;78.70
2489;DHT22;1255;48.716;9.124;2023-05-29T14:57:03;26.90;79.90
2489;DHT22;1255;48.716;9.124;2023-05-29T14:59:31;27.00;84.50
2489;DHT22;1255;48.716;9.124;2023-05-29T15:01:59;27.00;84.10
2489;DHT22;1255;48.716;9.124;2023-05-29T15:04:26;27.10;79.00
2489;DHT22;1255;48.716;9.124;2023-05-29T15:06:53;27.10;81.20
2489;DHT22;1255;48.716;9.124;2023-05-29T15:09:21;26.80;77.00
2489;DHT22;1255;48.716;9.124;2023-05-29T15:11:48;26.60;77.80
2489;DHT22;1255;48.716;9.124;2023-05-29T15:14:16;26.50;79.10
2489;DHT22;1255;48.716;9.124;2023-05-29T15:16:43;26.50;78.10
2489;DHT22;1255;48.716;9.124;2023-05-29T15:19:12;26.40;80.20
2489;DHT22;1255;48.716;9.124;2023-05-29T15:21:39;26.30;79.50
2489;DHT22;1255;48.716;9.124;2023-05-29T15:24:06;26.20;77.20
2489;DHT22;1255;48.716;9.124;2023-05-29T15:26:33;26.20;82.50
2489;DHT22;1255;48.716;9.124;2023-05-29T15:29:02;26.10;77.70
2489;DHT22;1255;48.716;9.124;2023-05-29T15:31:29;26.10;78.80
2489;DHT22;1255;48.716;9.124;2023-05-29T15:33:56;26.10;78.80
2489;DHT22;1255;48.716;9.124;2023-05-29T15:36:24;25.90;77.80
2489;DHT22;1255;48.716;9.124;2023-05-29T15:38:51;25.80;79.60
2489;DHT22;1255;48.716;9.124;2023-05-29T15:41:18;25.80;80.50
2489;DHT22;1255;48.716;9.124;2023-05-29T15:43:45;25.80;79.90
2489;DHT22;1255;48.716;9.124;2023-05-29T15:46:12;25.80;81.10
2489;DHT22;1255;48.716;9.124;2023-05-29T15:48:39;25.80;81.40
2489;DHT22;1255;48.716;9.124;2023-05-29T15:51:06;25.70;82.30
2489;DHT22;1255;48.716;9.124;2023-05-29T15:53:35;25.70;83.00
2489;DHT22;1255;48.716;9.124;2023-05-29T15:56:01;25.70;83.20
2489;DHT22;1255;48.716;9.124;2023-05-29T15:58:28;25.60;84.20
2489;DHT22;1255;48.716;9.124;2023-05-29T16:00:55;25.50;82.60
2489;DHT22;1255;48.716;9.124;2023-05-29T16:03:22;25.40;83.30
2489;DHT22;1255;48.716;9.124;2023-05-29T16:05:49;25.40;83.00
2489;DHT22;1255;48.716;9.124;2023-05-29T16:08:16;25.30;83.10
2489;DHT22;1255;48.716;9.124;2023-05-29T16:10:44;25.30;85.20
2489;DHT22;1255;48.716;9.124;2023-05-29T16:13:11;25.20;86.10
2489;DHT22;1255;48.716;9.124;2023-05-29T16:15:38;25.20;85.70